sensor_id;sensor_type;location;lat;lon;timestamp;pressure;altitude;pressure_sealevel;temperature;humidity
26859;BME280;14429;48.346;16.338;2023-05-12T00:02:04;99678.53;;;17.05;56.78
26859;BME280;14429;48.346;16.338;2023-05-12T00:04:29;99680.16;;;17.43;54.55
26859;BME280;14429;48.346;16.338;2023-05-12T00:06:56;99682.50;;;17.29;55.25
26859;BME280;14429;48.346;16.338;2023-05-12T00:09:21;99681.50;;;17.56;54.02
26859;BME280;14429;48.346;16.338;2023-05-12T00:11:47;99680.88;;;16.91;56.44
26859;BME280;14429;48.346;16.338;2023-05-12T00:14:12;99681.22;;;17.24;55.53
26859;BME280;14429;48.346;16.338;2023-05-12T00:16:38;99683.63;;;17.27;55.35
26859;BME280;14429;48.346;16.338;2023-05-12T00:19:03;99686.19;;;17.28;55.67
26859;BME280;14429;48.346;16.338;2023-05-12T00:21:29;99678.84;;;17.21;55.38
26859;BME280;14429;48.346;16.338;2023-05-12T00:23:56;99681.88;;;17.35;55.03
26859;BME280;14429;48.346;16.338;2023-05-12T00:26:21;99686.47;;;17.25;55.43
26859;BME280;14429;48.346;16.338;2023-05-12T00:28:47;99677.44;;;17.17;55.42
26859;BME280;14429;48.346;16.338;2023-05-12T00:31:12;99685.25;;;17.10;55.55
26859;BME280;14429;48.346;16.338;2023-05-12T00:33:38;99676.44;;;17.08;56.26
26859;BME280;14429;48.346;16.338;2023-05-12T00:36:04;99683.38;;;17.01;56.57
26859;BME280;14429;48.346;16.338;2023-05-12T00:38:29;99682.53;;;17.01;56.82
26859;BME280;14429;48.346;16.338;2023-05-12T00:40:56;99676.56;;;17.16;55.48
26859;BME280;14429;48.346;16.338;2023-05-12T00:43:21;99681.97;;;16.98;56.81
26859;BME280;14429;48.346;16.338;2023-05-12T00:45:47;99683.41;;;16.92;57.11
26859;BME280;14429;48.346;16.338;2023-05-12T00:48:12;99687.66;;;16.85;57.22
26859;BME280;14429;48.346;16.338;2023-05-12T00:50:38;99680.88;;;16.81;57.54
26859;BME280;14429;48.346;16.338;2023-05-12T00:53:05;99688.25;;;16.70;57.92
26859;BME280;14429;48.346;16.338;2023-05-12T00:55:31;99682.31;;;16.76;57.43
26859;BME280;14429;48.346;16.338;2023-05-12T00:57:58;99686.31;;;16.53;59.22
26859;BME280;14429;48.346;16.338;2023-05-12T01:00:24;99683.13;;;16.95;56.17
26859;BME280;14429;48.346;16.338;2023-05-12T01:02:49;99682.91;;;16.61;58.80
26859;BME280;14429;48.346;16.338;2023-05-12T01:05:15;99683.88;;;16.60;58.78
26859;BME280;14429;48.346;16.338;2023-05-12T01:07:41;99688.44;;;16.50;58.76
26859;BME280;14429;48.346;16.338;2023-05-12T01:10:16;99689.97;;;16.34;59.88
26859;BME280;14429;48.346;16.338;2023-05-12T01:12:42;99680.06;;;16.44;59.55
26859;BME280;14429;48.346;16.338;2023-05-12T01:15:09;99687.53;;;16.68;58.19
26859;BME280;14429;48.346;16.338;2023-05-12T01:17:36;99692.09;;;16.40;61.41
26859;BME280;14429;48.346;16.338;2023-05-12T01:20:04;99696.22;;;16.44;60.10
26859;BME280;14429;48.346;16.338;2023-05-12T01:22:31;99691.09;;;16.59;59.79
26859;BME280;14429;48.346;16.338;2023-05-12T01:24:59;99692.81;;;16.51;61.02
26859;BME280;14429;48.346;16.338;2023-05-12T01:27:27;99695.63;;;16.31;62.87
26859;BME280;14429;48.346;16.338;2023-05-12T01:29:58;99708.81;;;15.86;65.16
26859;BME280;14429;48.346;16.338;2023-05-12T01:32:25;99704.53;;;15.64;66.43
26859;BME280;14429;48.346;16.338;2023-05-12T01:34:51;99708.81;;;15.76;65.42
26859;BME280;14429;48.346;16.338;2023-05-12T01:37:16;99711.25;;;15.89;64.56
26859;BME280;14429;48.346;16.338;2023-05-12T01:39:42;99705.34;;;16.04;63.29
26859;BME280;14429;48.346;16.338;2023-05-12T01:42:07;99708.38;;;16.10;62.59
26859;BME280;14429;48.346;16.338;2023-05-12T01:44:34;99703.75;;;15.83;64.12
26859;BME280;14429;48.346;16.338;2023-05-12T01:46:59;99707.66;;;15.79;64.73
26859;BME280;14429;48.346;16.338;2023-05-12T01:49:25;99700.16;;;15.73;64.74
26859;BME280;14429;48.346;16.338;2023-05-12T01:51:50;99707.16;;;15.94;63.26
26859;BME280;14429;48.346;16.338;2023-05-12T01:54:16;99706.81;;;15.78;64.80
26859;BME280;14429;48.346;16.338;2023-05-12T01:56:41;99711.09;;;15.81;64.72
26859;BME280;14429;48.346;16.338;2023-05-12T01:59:07;99711.41;;;15.96;62.93
26859;BME280;14429;48.346;16.338;2023-05-12T02:01:34;99708.28;;;15.91;63.43
26859;BME280;14429;48.346;16.338;2023-05-12T02:04:00;99712.78;;;15.72;65.58
26859;BME280;14429;48.346;16.338;2023-05-12T02:06:25;99707.38;;;15.72;65.74
26859;BME280;14429;48.346;16.338;2023-05-12T02:08:50;99714.16;;;15.67;66.18
26859;BME280;14429;48.346;16.338;2023-05-12T02:11:16;99709.94;;;15.74;66.03
26859;BME280;14429;48.346;16.338;2023-05-12T02:13:41;99705.97;;;15.78;65.50
26859;BME280;14429;48.346;16.338;2023-05-12T02:16:07;99712.94;;;15.90;64.69
26859;BME280;14429;48.346;16.338;2023-05-12T02:18:34;99704.56;;;15.74;66.60
26859;BME280;14429;48.346;16.338;2023-05-12T02:20:59;99712.06;;;15.41;68.71
26859;BME280;14429;48.346;16.338;2023-05-12T02:23:25;99710.72;;;15.26;69.73
26859;BME280;14429;48.346;16.338;2023-05-12T02:25:51;99708.81;;;15.08;70.15
26859;BME280;14429;48.346;16.338;2023-05-12T02:28:16;99718.47;;;15.20;69.61
26859;BME280;14429;48.346;16.338;2023-05-12T02:30:44;99717.81;;;15.07;70.72
26859;BME280;14429;48.346;16.338;2023-05-12T02:33:09;99714.34;;;15.16;69.66
26859;BME280;14429;48.346;16.338;2023-05-12T02:35:36;99717.09;;;15.25;68.42
26859;BME280;14429;48.346;16.338;2023-05-12T02:38:01;99717.59;;;15.39;66.83
26859;BME280;14429;48.346;16.338;2023-05-12T02:40:27;99726.06;;;15.15;70.13
26859;BME280;14429;48.346;16.338;2023-05-12T02:42:52;99725.19;;;15.05;70.41
26859;BME280;14429;48.346;16.338;2023-05-12T02:45:18;99721.53;;;15.36;67.44
26859;BME280;14429;48.346;16.338;2023-05-12T02:47:43;99714.72;;;15.70;64.44
26859;BME280;14429;48.346;16.338;2023-05-12T02:50:09;99720.34;;;15.58;66.98
26859;BME280;14429;48.346;16.338;2023-05-12T02:52:35;99718.59;;;15.48;67.35
26859;BME280;14429;48.346;16.338;2023-05-12T02:55:01;99724.34;;;14.74;72.44
26859;BME280;14429;48.346;16.338;2023-05-12T02:57:26;99724.81;;;15.48;67.25
26859;BME280;14429;48.346;16.338;2023-05-12T02:59:52;99726.56;;;15.49;67.37
26859;BME280;14429;48.346;16.338;2023-05-12T03:02:17;99720.84;;;15.43;67.60
26859;BME280;14429;48.346;16.338;2023-05-12T03:04:43;99717.41;;;15.32;68.05
26859;BME280;14429;48.346;16.338;2023-05-12T03:07:08;99724.69;;;15.20;70.36
26859;BME280;14429;48.346;16.338;2023-05-12T03:09:35;99721.63;;;15.34;68.71
26859;BME280;14429;48.346;16.338;2023-05-12T03:12:00;99726.25;;;15.52;67.02
26859;BME280;14429;48.346;16.338;2023-05-12T03:14:26;99728.34;;;14.99;70.88
26859;BME280;14429;48.346;16.338;2023-05-12T03:16:51;99725.41;;;15.02;69.89
26859;BME280;14429;48.346;16.338;2023-05-12T03:19:16;99722.59;;;14.83;71.18
26859;BME280;14429;48.346;16.338;2023-05-12T03:21:42;99726.00;;;14.34;74.82
26859;BME280;14429;48.346;16.338;2023-05-12T03:24:07;99731.03;;;14.99;70.01
26859;BME280;14429;48.346;16.338;2023-05-12T03:26:34;99731.56;;;14.93;70.57
26859;BME280;14429;48.346;16.338;2023-05-12T03:28:59;99729.75;;;15.14;69.17
26859;BME280;14429;48.346;16.338;2023-05-12T03:31:25;99731.81;;;14.90;71.71
26859;BME280;14429;48.346;16.338;2023-05-12T03:33:50;99737.19;;;14.90;71.42
26859;BME280;14429;48.346;16.338;2023-05-12T03:36:16;99735.09;;;14.74;72.53
26859;BME280;14429;48.346;16.338;2023-05-12T03:38:41;99736.22;;;14.71;73.11
26859;BME280;14429;48.346;16.338;2023-05-12T03:41:07;99733.25;;;14.74;72.76
26859;BME280;14429;48.346;16.338;2023-05-12T03:43:34;99731.16;;;14.78;72.53
26859;BME280;14429;48.346;16.338;2023-05-12T03:45:59;99731.09;;;14.88;71.24
26859;BME280;14429;48.346;16.338;2023-05-12T03:48:24;99731.91;;;14.80;72.53
26859;BME280;14429;48.346;16.338;2023-05-12T03:50:50;99733.28;;;14.94;71.35
26859;BME280;14429;48.346;16.338;2023-05-12T03:53:15;99738.59;;;14.54;74.42
26859;BME280;14429;48.346;16.338;2023-05-12T03:55:41;99732.03;;;14.47;74.26
26859;BME280;14429;48.346;16.338;2023-05-12T03:58:06;99733.25;;;14.54;73.81
26859;BME280;14429;48.346;16.338;2023-05-12T04:00:33;99738.81;;;14.62;73.00
26859;BME280;14429;48.346;16.338;2023-05-12T04:02:59;99731.00;;;14.59;73.29
26859;BME280;14429;48.346;16.338;2023-05-12T04:05:25;99728.88;;;14.53;73.78
26859;BME280;14429;48.346;16.338;2023-05-12T04:07:50;99748.06;;;14.38;75.85
26859;BME280;14429;48.346;16.338;2023-05-12T04:10:16;99735.72;;;14.46;74.90
26859;BME280;14429;48.346;16.338;2023-05-12T04:12:41;99739.03;;;14.39;75.62
26859;BME280;14429;48.346;16.338;2023-05-12T04:15:07;99747.47;;;14.34;75.03
26859;BME280;14429;48.346;16.338;2023-05-12T04:17:34;99737.00;;;14.31;75.50
26859;BME280;14429;48.346;16.338;2023-05-12T04:19:59;99748.91;;;14.38;75.74
26859;BME280;14429;48.346;16.338;2023-05-12T04:22:25;99748.19;;;14.36;75.80
26859;BME280;14429;48.346;16.338;2023-05-12T04:24:50;99745.22;;;14.50;74.42
26859;BME280;14429;48.346;16.338;2023-05-12T04:27:15;99745.06;;;14.21;76.42
26859;BME280;14429;48.346;16.338;2023-05-12T04:29:41;99748.09;;;14.58;72.88
26859;BME280;14429;48.346;16.338;2023-05-12T04:32:06;99755.38;;;14.36;74.83
26859;BME280;14429;48.346;16.338;2023-05-12T04:34:33;99754.84;;;14.11;77.13
26859;BME280;14429;48.346;16.338;2023-05-12T04:36:59;99761.44;;;13.96;78.36
26859;BME280;14429;48.346;16.338;2023-05-12T04:39:24;99760.97;;;14.02;77.89
26859;BME280;14429;48.346;16.338;2023-05-12T04:41:50;99769.50;;;13.85;78.04
26859;BME280;14429;48.346;16.338;2023-05-12T04:44:15;99766.09;;;14.05;77.03
26859;BME280;14429;48.346;16.338;2023-05-12T04:46:40;99770.25;;;13.98;77.83
26859;BME280;14429;48.346;16.338;2023-05-12T04:49:06;99772.41;;;13.93;78.59
26859;BME280;14429;48.346;16.338;2023-05-12T04:51:33;99769.00;;;13.91;79.35
26859;BME280;14429;48.346;16.338;2023-05-12T04:53:58;99767.06;;;14.04;78.29
26859;BME280;14429;48.346;16.338;2023-05-12T04:56:23;99778.16;;;14.00;78.70
26859;BME280;14429;48.346;16.338;2023-05-12T04:58:49;99774.16;;;13.94;78.90
26859;BME280;14429;48.346;16.338;2023-05-12T05:01:14;99775.19;;;13.92;78.60
26859;BME280;14429;48.346;16.338;2023-05-12T05:03:40;99779.13;;;13.99;77.89
26859;BME280;14429;48.346;16.338;2023-05-12T05:06:05;99774.34;;;14.13;76.66
26859;BME280;14429;48.346;16.338;2023-05-12T05:08:32;99774.84;;;13.96;78.43
26859;BME280;14429;48.346;16.338;2023-05-12T05:10:58;99776.06;;;14.14;76.64
26859;BME280;14429;48.346;16.338;2023-05-12T05:13:23;99778.97;;;14.11;76.66
26859;BME280;14429;48.346;16.338;2023-05-12T05:15:49;99778.63;;;14.15;77.06
26859;BME280;14429;48.346;16.338;2023-05-12T05:18:15;99772.81;;;14.41;74.93
26859;BME280;14429;48.346;16.338;2023-05-12T05:20:40;99777.94;;;14.33;75.84
26859;BME280;14429;48.346;16.338;2023-05-12T05:23:05;99775.13;;;14.46;74.81
26859;BME280;14429;48.346;16.338;2023-05-12T05:25:32;99776.06;;;14.14;76.79
26859;BME280;14429;48.346;16.338;2023-05-12T05:27:58;99774.44;;;14.22;76.92
26859;BME280;14429;48.346;16.338;2023-05-12T05:30:23;99779.50;;;14.47;74.82
26859;BME280;14429;48.346;16.338;2023-05-12T05:32:49;99775.97;;;14.46;74.62
26859;BME280;14429;48.346;16.338;2023-05-12T05:35:14;99778.94;;;14.22;77.01
26859;BME280;14429;48.346;16.338;2023-05-12T05:37:39;99778.09;;;14.21;76.69
26859;BME280;14429;48.346;16.338;2023-05-12T05:40:06;99780.16;;;14.28;76.19
26859;BME280;14429;48.346;16.338;2023-05-12T05:42:33;99784.41;;;14.42;75.48
26859;BME280;14429;48.346;16.338;2023-05-12T05:44:59;99785.44;;;14.19;77.54
26859;BME280;14429;48.346;16.338;2023-05-12T05:47:24;99783.69;;;14.29;77.14
26859;BME280;14429;48.346;16.338;2023-05-12T05:49:50;99783.66;;;14.40;76.54
26859;BME280;14429;48.346;16.338;2023-05-12T05:52:15;99786.16;;;13.89;79.85
26859;BME280;14429;48.346;16.338;2023-05-12T05:54:41;99793.00;;;13.93;79.83
26859;BME280;14429;48.346;16.338;2023-05-12T05:57:06;99799.59;;;14.00;80.13
26859;BME280;14429;48.346;16.338;2023-05-12T05:59:33;99791.94;;;13.95;80.66
26859;BME280;14429;48.346;16.338;2023-05-12T06:01:58;99792.91;;;14.05;78.99
26859;BME280;14429;48.346;16.338;2023-05-12T06:04:24;99792.72;;;14.28;77.23
26859;BME280;14429;48.346;16.338;2023-05-12T06:06:49;99794.56;;;14.17;78.71
26859;BME280;14429;48.346;16.338;2023-05-12T06:09:14;99793.22;;;14.22;78.43
26859;BME280;14429;48.346;16.338;2023-05-12T06:11:40;99792.06;;;14.04;79.90
26859;BME280;14429;48.346;16.338;2023-05-12T06:14:05;99796.19;;;13.98;80.49
26859;BME280;14429;48.346;16.338;2023-05-12T06:16:32;99790.19;;;14.16;79.69
26859;BME280;14429;48.346;16.338;2023-05-12T06:18:58;99799.91;;;14.28;78.22
26859;BME280;14429;48.346;16.338;2023-05-12T06:21:23;99799.56;;;14.10;80.45
26859;BME280;14429;48.346;16.338;2023-05-12T06:23:49;99813.75;;;14.02;81.51
26859;BME280;14429;48.346;16.338;2023-05-12T06:26:14;99812.53;;;13.95;81.27
26859;BME280;14429;48.346;16.338;2023-05-12T06:28:40;99810.31;;;13.78;81.82
26859;BME280;14429;48.346;16.338;2023-05-12T06:31:05;99817.25;;;13.91;81.55
26859;BME280;14429;48.346;16.338;2023-05-12T06:33:32;99816.91;;;14.06;80.49
26859;BME280;14429;48.346;16.338;2023-05-12T06:35:58;99816.78;;;14.08;80.05
26859;BME280;14429;48.346;16.338;2023-05-12T06:38:23;99815.50;;;14.33;78.22
26859;BME280;14429;48.346;16.338;2023-05-12T06:40:49;99822.13;;;14.19;79.80
26859;BME280;14429;48.346;16.338;2023-05-12T06:43:14;99820.38;;;14.28;80.56
26859;BME280;14429;48.346;16.338;2023-05-12T06:45:40;99816.31;;;14.45;79.87
26859;BME280;14429;48.346;16.338;2023-05-12T06:48:05;99817.09;;;14.36;79.65
26859;BME280;14429;48.346;16.338;2023-05-12T06:50:32;99819.00;;;14.45;79.54
26859;BME280;14429;48.346;16.338;2023-05-12T06:52:57;99831.50;;;14.24;82.24
26859;BME280;14429;48.346;16.338;2023-05-12T06:55:23;99826.28;;;14.23;81.96
26859;BME280;14429;48.346;16.338;2023-05-12T06:57:48;99823.06;;;14.39;80.46
26859;BME280;14429;48.346;16.338;2023-05-12T07:00:14;99817.25;;;14.24;81.96
26859;BME280;14429;48.346;16.338;2023-05-12T07:02:40;99823.09;;;14.59;78.07
26859;BME280;14429;48.346;16.338;2023-05-12T07:05:05;99820.38;;;14.28;79.86
26859;BME280;14429;48.346;16.338;2023-05-12T07:07:32;99818.47;;;14.20;80.77
26859;BME280;14429;48.346;16.338;2023-05-12T07:09:58;99829.91;;;14.11;81.33
26859;BME280;14429;48.346;16.338;2023-05-12T07:12:23;99816.22;;;14.46;79.77
26859;BME280;14429;48.346;16.338;2023-05-12T07:14:49;99809.22;;;14.55;80.35
26859;BME280;14429;48.346;16.338;2023-05-12T07:17:14;99813.75;;;14.54;78.46
26859;BME280;14429;48.346;16.338;2023-05-12T07:19:39;99818.69;;;14.38;78.17
26859;BME280;14429;48.346;16.338;2023-05-12T07:22:05;99819.34;;;14.51;77.83
26859;BME280;14429;48.346;16.338;2023-05-12T07:24:32;99809.16;;;14.45;78.90
26859;BME280;14429;48.346;16.338;2023-05-12T07:26:57;99818.97;;;14.14;79.80
26859;BME280;14429;48.346;16.338;2023-05-12T07:29:22;99819.88;;;14.45;77.55
26859;BME280;14429;48.346;16.338;2023-05-12T07:31:48;99821.56;;;14.46;79.39
26859;BME280;14429;48.346;16.338;2023-05-12T07:34:13;99825.25;;;14.45;79.17
26859;BME280;14429;48.346;16.338;2023-05-12T07:36:39;99819.00;;;14.45;79.66
26859;BME280;14429;48.346;16.338;2023-05-12T07:39:04;99815.53;;;14.64;78.49
26859;BME280;14429;48.346;16.338;2023-05-12T07:41:31;99817.38;;;14.64;78.24
26859;BME280;14429;48.346;16.338;2023-05-12T07:43:56;99824.88;;;14.50;79.02
26859;BME280;14429;48.346;16.338;2023-05-12T07:46:21;99817.91;;;14.47;78.69
26859;BME280;14429;48.346;16.338;2023-05-12T07:48:47;99816.63;;;14.62;78.06
26859;BME280;14429;48.346;16.338;2023-05-12T07:51:12;99831.84;;;14.41;79.48
26859;BME280;14429;48.346;16.338;2023-05-12T07:53:38;99832.78;;;14.40;78.45
26859;BME280;14429;48.346;16.338;2023-05-12T07:56:03;99834.84;;;14.48;76.83
26859;BME280;14429;48.346;16.338;2023-05-12T07:58:30;99834.28;;;14.33;78.73
26859;BME280;14429;48.346;16.338;2023-05-12T08:00:55;99842.31;;;14.33;78.49
26859;BME280;14429;48.346;16.338;2023-05-12T08:03:21;99836.47;;;14.70;74.36
26859;BME280;14429;48.346;16.338;2023-05-12T08:05:46;99840.38;;;14.35;79.04
26859;BME280;14429;48.346;16.338;2023-05-12T08:08:12;99847.97;;;14.30;79.19
26859;BME280;14429;48.346;16.338;2023-05-12T08:10:37;99855.03;;;14.31;78.24
26859;BME280;14429;48.346;16.338;2023-05-12T08:13:03;99851.06;;;14.57;76.74
26859;BME280;14429;48.346;16.338;2023-05-12T08:15:30;99846.78;;;14.55;76.29
26859;BME280;14429;48.346;16.338;2023-05-12T08:17:55;99849.16;;;14.37;77.35
26859;BME280;14429;48.346;16.338;2023-05-12T08:20:20;99850.25;;;14.35;77.74
26859;BME280;14429;48.346;16.338;2023-05-12T08:22:46;99853.38;;;14.61;75.65
26859;BME280;14429;48.346;16.338;2023-05-12T08:25:11;99856.88;;;14.73;75.42
26859;BME280;14429;48.346;16.338;2023-05-12T08:27:37;99855.72;;;14.44;78.27
26859;BME280;14429;48.346;16.338;2023-05-12T08:30:02;99862.25;;;14.62;78.07
26859;BME280;14429;48.346;16.338;2023-05-12T08:32:29;99851.41;;;14.94;73.78
26859;BME280;14429;48.346;16.338;2023-05-12T08:34:55;99858.69;;;14.72;75.14
26859;BME280;14429;48.346;16.338;2023-05-12T08:37:20;99852.72;;;14.69;75.08
26859;BME280;14429;48.346;16.338;2023-05-12T08:39:46;99843.38;;;14.63;76.84
26859;BME280;14429;48.346;16.338;2023-05-12T08:42:20;99850.28;;;14.97;73.04
26859;BME280;14429;48.346;16.338;2023-05-12T08:44:51;99856.97;;;14.82;74.87
26859;BME280;14429;48.346;16.338;2023-05-12T08:47:18;99855.31;;;15.01;73.64
26859;BME280;14429;48.346;16.338;2023-05-12T08:49:51;99851.41;;;14.94;76.28
26859;BME280;14429;48.346;16.338;2023-05-12T08:52:22;99852.81;;;14.78;77.49
26859;BME280;14429;48.346;16.338;2023-05-12T08:54:48;99854.16;;;14.83;77.40
26859;BME280;14429;48.346;16.338;2023-05-12T08:57:15;99856.78;;;14.94;76.67
26859;BME280;14429;48.346;16.338;2023-05-12T08:59:42;99856.69;;;14.85;77.06
26859;BME280;14429;48.346;16.338;2023-05-12T09:02:08;99865.16;;;14.70;77.21
26859;BME280;14429;48.346;16.338;2023-05-12T09:04:34;99860.97;;;14.87;74.63
26859;BME280;14429;48.346;16.338;2023-05-12T09:07:02;99865.59;;;14.85;76.64
26859;BME280;14429;48.346;16.338;2023-05-12T09:09:29;99863.06;;;15.04;72.69
26859;BME280;14429;48.346;16.338;2023-05-12T09:11:56;99870.06;;;14.65;77.12
26859;BME280;14429;48.346;16.338;2023-05-12T09:14:28;99870.22;;;14.94;74.83
26859;BME280;14429;48.346;16.338;2023-05-12T09:16:58;99869.56;;;15.02;74.72
26859;BME280;14429;48.346;16.338;2023-05-12T09:19:25;99863.41;;;14.90;74.95
26859;BME280;14429;48.346;16.338;2023-05-12T09:21:51;99870.91;;;14.96;73.75
26859;BME280;14429;48.346;16.338;2023-05-12T09:24:18;99869.72;;;14.89;74.46
26859;BME280;14429;48.346;16.338;2023-05-12T09:26:45;99883.16;;;14.48;76.39
26859;BME280;14429;48.346;16.338;2023-05-12T09:29:11;99881.28;;;14.70;74.13
26859;BME280;14429;48.346;16.338;2023-05-12T09:31:37;99876.88;;;14.69;75.82
26859;BME280;14429;48.346;16.338;2023-05-12T09:34:06;99876.28;;;14.65;75.28
26859;BME280;14429;48.346;16.338;2023-05-12T09:36:32;99877.13;;;14.66;75.40
26859;BME280;14429;48.346;16.338;2023-05-12T09:38:59;99883.69;;;14.83;75.93
26859;BME280;14429;48.346;16.338;2023-05-12T09:41:26;99884.91;;;14.80;76.07
26859;BME280;14429;48.346;16.338;2023-05-12T09:43:52;99885.84;;;14.89;74.56
26859;BME280;14429;48.346;16.338;2023-05-12T09:46:17;99880.63;;;14.77;72.52
26859;BME280;14429;48.346;16.338;2023-05-12T09:48:45;99880.75;;;14.86;73.33
26859;BME280;14429;48.346;16.338;2023-05-12T09:51:11;99892.22;;;14.78;74.23
26859;BME280;14429;48.346;16.338;2023-05-12T09:53:40;99879.03;;;14.85;74.99
26859;BME280;14429;48.346;16.338;2023-05-12T09:56:05;99887.25;;;15.04;72.18
26859;BME280;14429;48.346;16.338;2023-05-12T09:58:32;99887.06;;;14.85;75.65
26859;BME280;14429;48.346;16.338;2023-05-12T10:00:58;99880.19;;;15.03;72.99
26859;BME280;14429;48.346;16.338;2023-05-12T10:03:25;99884.53;;;14.84;73.69
26859;BME280;14429;48.346;16.338;2023-05-12T10:05:56;99881.09;;;15.24;71.26
26859;BME280;14429;48.346;16.338;2023-05-12T10:08:24;99881.88;;;15.15;74.04
26859;BME280;14429;48.346;16.338;2023-05-12T10:10:52;99886.72;;;15.21;72.77
26859;BME280;14429;48.346;16.338;2023-05-12T10:13:20;99886.47;;;15.24;73.50
26859;BME280;14429;48.346;16.338;2023-05-12T10:15:48;99879.84;;;15.48;70.51
26859;BME280;14429;48.346;16.338;2023-05-12T10:18:16;99880.25;;;15.43;71.46
26859;BME280;14429;48.346;16.338;2023-05-12T10:20:42;99886.09;;;15.48;71.83
26859;BME280;14429;48.346;16.338;2023-05-12T10:23:09;99883.75;;;15.35;71.94
26859;BME280;14429;48.346;16.338;2023-05-12T10:25:37;99890.66;;;15.17;72.77
26859;BME280;14429;48.346;16.338;2023-05-12T10:28:04;99890.00;;;15.24;72.59
26859;BME280;14429;48.346;16.338;2023-05-12T10:30:30;99893.16;;;15.09;71.34
26859;BME280;14429;48.346;16.338;2023-05-12T10:32:58;99892.31;;;15.29;71.00
26859;BME280;14429;48.346;16.338;2023-05-12T10:35:31;99893.44;;;15.46;69.00
26859;BME280;14429;48.346;16.338;2023-05-12T10:38:00;99896.38;;;15.43;70.73
26859;BME280;14429;48.346;16.338;2023-05-12T10:40:25;99901.16;;;15.20;69.80
26859;BME280;14429;48.346;16.338;2023-05-12T10:42:50;99905.84;;;15.07;70.79
26859;BME280;14429;48.346;16.338;2023-05-12T10:45:17;99905.47;;;15.01;70.71
26859;BME280;14429;48.346;16.338;2023-05-12T10:47:43;99894.53;;;15.24;69.61
26859;BME280;14429;48.346;16.338;2023-05-12T10:50:11;99896.97;;;15.27;70.04
26859;BME280;14429;48.346;16.338;2023-05-12T10:52:36;99913.34;;;15.24;70.62
26859;BME280;14429;48.346;16.338;2023-05-12T10:55:02;99906.94;;;15.36;69.43
26859;BME280;14429;48.346;16.338;2023-05-12T10:57:28;99898.06;;;14.93;70.60
26859;BME280;14429;48.346;16.338;2023-05-12T10:59:56;99904.09;;;14.75;73.12
26859;BME280;14429;48.346;16.338;2023-05-12T11:02:23;99910.59;;;14.93;70.93
26859;BME280;14429;48.346;16.338;2023-05-12T11:04:51;99902.66;;;15.13;68.96
26859;BME280;14429;48.346;16.338;2023-05-12T11:07:22;99909.72;;;15.14;69.45
26859;BME280;14429;48.346;16.338;2023-05-12T11:09:48;99907.91;;;14.93;71.57
26859;BME280;14429;48.346;16.338;2023-05-12T11:12:14;99909.66;;;15.25;68.94
26859;BME280;14429;48.346;16.338;2023-05-12T11:14:41;99905.38;;;15.53;66.89
26859;BME280;14429;48.346;16.338;2023-05-12T11:17:07;99912.66;;;15.11;70.27
26859;BME280;14429;48.346;16.338;2023-05-12T11:19:34;99913.59;;;15.21;69.10
26859;BME280;14429;48.346;16.338;2023-05-12T11:22:04;99909.97;;;15.11;71.52
26859;BME280;14429;48.346;16.338;2023-05-12T11:24:31;99913.66;;;15.30;70.24
26859;BME280;14429;48.346;16.338;2023-05-12T11:26:56;99916.72;;;14.95;74.86
26859;BME280;14429;48.346;16.338;2023-05-12T11:29:22;99919.44;;;15.26;72.73
26859;BME280;14429;48.346;16.338;2023-05-12T11:31:47;99927.53;;;15.04;71.94
26859;BME280;14429;48.346;16.338;2023-05-12T11:34:13;99919.47;;;15.15;69.55
26859;BME280;14429;48.346;16.338;2023-05-12T11:36:39;99919.41;;;15.06;71.52
26859;BME280;14429;48.346;16.338;2023-05-12T11:39:12;99916.66;;;14.75;71.07
26859;BME280;14429;48.346;16.338;2023-05-12T11:41:39;99923.00;;;14.63;70.15
26859;BME280;14429;48.346;16.338;2023-05-12T11:44:12;99927.16;;;14.67;71.50
26859;BME280;14429;48.346;16.338;2023-05-12T11:46:38;99919.09;;;14.67;68.76
26859;BME280;14429;48.346;16.338;2023-05-12T11:49:09;99933.53;;;14.97;67.26
26859;BME280;14429;48.346;16.338;2023-05-12T11:51:39;99931.25;;;14.92;67.12
26859;BME280;14429;48.346;16.338;2023-05-12T11:54:05;99932.81;;;14.95;67.62
26859;BME280;14429;48.346;16.338;2023-05-12T11:56:31;99931.72;;;14.97;68.43
26859;BME280;14429;48.346;16.338;2023-05-12T11:58:58;99933.72;;;14.74;67.90
26859;BME280;14429;48.346;16.338;2023-05-12T12:01:24;99937.88;;;14.67;66.86
26859;BME280;14429;48.346;16.338;2023-05-12T12:03:51;99930.66;;;14.78;68.52
26859;BME280;14429;48.346;16.338;2023-05-12T12:06:17;99937.88;;;14.67;71.00
26859;BME280;14429;48.346;16.338;2023-05-12T12:08:50;99944.69;;;14.82;68.29
26859;BME280;14429;48.346;16.338;2023-05-12T12:11:16;99942.00;;;14.82;68.01
26859;BME280;14429;48.346;16.338;2023-05-12T12:13:47;99932.69;;;15.07;66.51
26859;BME280;14429;48.346;16.338;2023-05-12T12:16:14;99945.59;;;15.24;66.29
26859;BME280;14429;48.346;16.338;2023-05-12T12:18:39;99944.44;;;15.06;69.09
26859;BME280;14429;48.346;16.338;2023-05-12T12:21:05;99944.38;;;15.17;67.99
26859;BME280;14429;48.346;16.338;2023-05-12T12:23:30;99944.19;;;14.98;71.10
26859;BME280;14429;48.346;16.338;2023-05-12T12:25:55;99951.63;;;15.06;70.42
26859;BME280;14429;48.346;16.338;2023-05-12T12:28:21;99941.41;;;14.78;67.98
26859;BME280;14429;48.346;16.338;2023-05-12T12:30:46;99958.03;;;14.72;69.68
26859;BME280;14429;48.346;16.338;2023-05-12T12:33:13;99954.97;;;14.77;69.69
26859;BME280;14429;48.346;16.338;2023-05-12T12:35:39;99953.47;;;14.94;69.72
26859;BME280;14429;48.346;16.338;2023-05-12T12:38:04;99955.94;;;14.86;69.92
26859;BME280;14429;48.346;16.338;2023-05-12T12:40:29;99963.84;;;14.88;71.20
26859;BME280;14429;48.346;16.338;2023-05-12T12:42:55;99958.00;;;14.83;71.77
26859;BME280;14429;48.346;16.338;2023-05-12T12:45:20;99958.38;;;14.79;73.57